Time;durP1;ratioP1;P1;durP2;ratioP2;P2;SDS_P1;SDS_P2;PMS_P1;PMS_P2;Temp;Humidity;BMP_temperature;BMP_pressure;BME280_temperature;BME280_humidity;BME280_pressure;Samples;Min_cycle;Max_cycle;Signal;HPM_P1;HPM_P2
2022/08/17 00:00:02;;;;;;;6.18;4.82;;;18.30;99.90;;;17.57;100.00;97088.25;4942811;28;20051;-64
2022/08/17 00:02:29;;;;;;;6.13;5.20;;;18.20;99.90;;;17.38;100.00;97101.97;4944704;28;20051;-64
2022/08/17 00:05:02;;;;;;;6.38;5.30;;;18.10;99.90;;;17.33;100.00;97106.72;4942494;28;20051;-64
2022/08/17 00:07:29;;;;;;;7.72;5.25;;;18.00;99.90;;;17.21;100.00;97100.63;4941504;28;20065;-64
2022/08/17 00:09:56;;;;;;;6.63;4.40;;;18.00;99.90;;;17.21;100.00;97107.69;4942556;28;20079;-63
2022/08/17 00:12:23;;;;;;;7.97;4.65;;;18.10;99.90;;;17.21;100.00;97108.50;4944181;28;20519;-64
2022/08/17 00:15:12;;;;;;;5.10;3.80;;;18.10;99.90;;;17.45;100.00;97103.16;4943211;28;20901;-64
2022/08/17 00:17:41;;;;;;;6.28;4.28;;;18.10;99.90;;;17.53;100.00;97102.56;4941803;28;20090;-64
2022/08/17 00:20:10;;;;;;;7.10;4.57;;;18.10;99.90;;;17.70;100.00;97093.38;4941612;28;20051;-64
2022/08/17 00:22:37;;;;;;;5.15;4.38;;;18.10;99.90;;;17.69;100.00;97086.44;4962016;28;20137;-63
2022/08/17 00:25:11;;;;;;;5.85;4.47;;;18.10;99.90;;;17.49;100.00;97085.38;4943698;28;20061;-64
2022/08/17 00:27:39;;;;;;;6.07;4.18;;;18.20;99.90;;;17.52;100.00;97085.97;4959620;28;20046;-64
2022/08/17 00:30:10;;;;;;;6.18;4.68;;;18.10;99.90;;;17.31;100.00;97091.13;4958048;28;20162;-64
2022/08/17 00:32:45;;;;;;;7.38;5.00;;;18.00;99.90;;;17.19;100.00;97094.69;4940056;28;20154;-64
2022/08/17 00:35:31;;;;;;;7.15;5.00;;;18.10;99.90;;;17.17;100.00;97098.38;4953421;28;20100;-63
2022/08/17 00:37:58;;;;;;;6.00;4.80;;;18.00;99.90;;;17.07;100.00;97103.50;4942641;28;20062;-63
2022/08/17 00:40:26;;;;;;;5.80;4.63;;;18.00;99.90;;;17.00;100.00;97100.50;4943478;28;20141;-64
2022/08/17 00:43:17;;;;;;;7.00;4.90;;;17.90;99.90;;;17.02;100.00;97095.16;4944254;29;20098;-64
2022/08/17 00:45:45;;;;;;;7.78;5.07;;;17.90;99.90;;;17.08;100.00;97100.75;4958497;28;20051;-64
2022/08/17 00:48:12;;;;;;;7.75;4.82;;;17.80;99.90;;;17.22;100.00;97091.84;4942208;28;20158;-65
2022/08/17 00:51:07;;;;;;;5.30;4.72;;;17.90;99.90;;;17.21;100.00;97087.53;4940305;28;20070;-65
2022/08/17 00:53:40;;;;;;;9.95;5.18;;;17.90;99.90;;;17.12;100.00;97089.06;4940074;28;20459;-64
2022/08/17 00:56:14;;;;;;;6.28;4.53;;;17.80;99.90;;;17.07;100.00;97090.38;4959505;28;20063;-64
2022/08/17 00:58:41;;;;;;;5.57;4.30;;;17.80;99.90;;;17.11;100.00;97092.66;4941680;28;20054;-65
2022/08/17 01:01:10;;;;;;;7.63;5.35;;;17.80;99.90;;;17.23;100.00;97077.75;4957720;28;20055;-64
2022/08/17 01:03:39;;;;;;;7.10;4.57;;;17.80;99.90;;;17.05;100.00;97089.66;4959952;28;20054;-64
2022/08/17 01:06:08;;;;;;;7.05;4.22;;;17.80;99.90;;;17.13;100.00;97090.75;4959401;28;20129;-64
2022/08/17 01:08:37;;;;;;;8.85;4.93;;;17.80;99.90;;;17.07;100.00;97087.75;4943947;28;20055;-64
2022/08/17 01:11:05;;;;;;;5.38;4.78;;;17.80;99.90;;;16.95;100.00;97088.72;4942548;28;20472;-65
2022/08/17 01:13:41;;;;;;;5.90;4.30;;;17.80;99.90;;;17.04;100.00;97080.97;4942044;28;20222;-64
2022/08/17 01:16:28;;;;;;;4.38;3.97;;;17.70;99.90;;;17.09;100.00;97083.25;4942681;28;20122;-64
2022/08/17 01:19:04;;;;;;;6.53;5.15;;;17.70;99.90;;;17.11;100.00;97092.66;4956268;28;20053;-64
2022/08/17 01:22:10;;;;;;;5.88;5.05;;;17.70;99.90;;;16.92;100.00;97097.63;4938108;28;20146;-65
2022/08/17 01:24:52;;;;;;;8.10;5.20;;;17.80;99.90;;;17.00;100.00;97100.50;4918229;29;20190;-64
2022/08/17 01:27:20;;;;;;;5.97;5.10;;;17.80;99.90;;;17.17;100.00;97104.44;4938129;28;20058;-63
2022/08/17 01:29:57;;;;;;;6.38;5.03;;;17.70;99.90;;;17.24;100.00;97099.56;4943481;28;20547;-65
2022/08/17 01:32:26;;;;;;;5.53;4.50;;;17.80;99.90;;;17.13;100.00;97090.75;4955192;28;20055;-64
2022/08/17 01:34:54;;;;;;;4.55;4.07;;;17.80;99.90;;;17.19;100.00;97091.22;4940490;28;20130;-64
2022/08/17 01:37:36;;;;;;;5.35;4.25;;;17.80;99.90;;;17.16;100.00;97088.84;4937884;28;20137;-64
2022/08/17 01:40:22;;;;;;;5.90;4.93;;;17.80;99.90;;;17.01;100.00;97096.09;4939969;28;20047;-64
2022/08/17 01:43:06;;;;;;;5.28;4.30;;;17.80;99.90;;;17.18;100.00;97105.31;4959143;28;20047;-64
2022/08/17 01:45:43;;;;;;;6.82;4.75;;;17.80;99.90;;;17.23;100.00;97103.16;4940914;28;20434;-64
2022/08/17 01:48:11;;;;;;;6.32;4.47;;;17.80;99.90;;;17.32;100.00;97099.81;4940925;28;20578;-64
2022/08/17 01:50:42;;;;;;;5.78;4.35;;;17.80;99.90;;;17.30;100.00;97099.09;4940773;28;20431;-64
2022/08/17 01:53:28;;;;;;;8.38;5.13;;;17.90;99.90;;;17.29;100.00;97103.50;4957871;28;20059;-65
2022/08/17 01:56:10;;;;;;;6.47;5.38;;;17.90;99.90;;;17.21;100.00;97103.25;4955696;28;20131;-64
2022/08/17 01:58:39;;;;;;;4.88;4.35;;;17.80;99.90;;;17.13;100.00;97114.34;4954580;28;20091;-64
2022/08/17 02:01:08;;;;;;;5.38;4.20;;;17.80;99.90;;;17.20;100.00;97100.78;4955576;28;20044;-64
2022/08/17 02:03:37;;;;;;;6.88;4.53;;;17.80;99.90;;;17.19;100.00;97099.09;4940333;28;20051;-64
2022/08/17 02:06:06;;;;;;;5.20;4.70;;;17.80;99.90;;;17.02;100.00;97097.78;4938597;28;20050;-65
2022/08/17 02:08:53;;;;;;;6.03;4.70;;;17.80;99.90;;;17.06;100.00;97105.28;4952029;28;20055;-63
2022/08/17 02:11:32;;;;;;;6.32;4.50;;;17.80;99.90;;;17.01;100.00;97111.81;4941595;28;20085;-63
2022/08/17 02:13:59;;;;;;;4.95;4.40;;;17.80;99.90;;;16.98;100.00;97109.44;4938093;28;20051;-64
2022/08/17 02:16:31;;;;;;;5.57;4.50;;;17.70;99.90;;;17.00;100.00;97105.75;4958143;28;20134;-64
2022/08/17 02:19:15;;;;;;;6.32;4.80;;;17.60;99.90;;;16.87;100.00;97108.44;4942128;28;20067;-64
2022/08/17 02:21:46;;;;;;;6.10;4.60;;;17.60;99.90;;;16.87;100.00;97113.69;4940494;28;20061;-64
2022/08/17 02:24:28;;;;;;;6.00;4.63;;;17.60;99.90;;;16.75;100.00;97121.63;4939594;28;20069;-64
2022/08/17 02:27:15;;;;;;;5.53;4.78;;;17.50;99.90;;;16.77;100.00;97117.94;4940482;28;20047;-64
2022/08/17 02:29:42;;;;;;;7.20;5.38;;;17.50;99.90;;;16.72;100.00;97118.28;4938330;28;20043;-64
2022/08/17 02:32:18;;;;;;;5.60;4.90;;;17.40;99.90;;;16.73;100.00;97119.94;4941507;29;20055;-64
2022/08/17 02:34:57;;;;;;;8.90;4.82;;;17.40;99.90;;;16.58;100.00;97120.25;4937672;28;20051;-63
2022/08/17 02:37:26;;;;;;;7.68;5.63;;;17.40;99.90;;;16.45;100.00;97123.78;4941729;28;20134;-64
2022/08/17 02:39:55;;;;;;;8.68;5.63;;;17.40;99.90;;;16.61;100.00;97130.53;4941504;28;20203;-64
2022/08/17 02:42:33;;;;;;;6.50;5.07;;;17.30;99.90;;;16.60;100.00;97136.69;4954529;28;20505;-63
2022/08/17 02:45:03;;;;;;;5.95;5.28;;;17.30;99.90;;;16.68;100.00;97137.81;4953476;28;20055;-65
2022/08/17 02:47:30;;;;;;;7.10;5.72;;;17.40;99.90;;;16.74;100.00;97144.38;4954280;28;20051;-64
2022/08/17 02:49:57;;;;;;;6.38;5.00;;;17.40;99.90;;;16.67;100.00;97138.75;4947569;28;20047;-64
2022/08/17 02:52:30;;;;;;;5.97;4.88;;;17.50;99.90;;;16.84;100.00;97141.94;4939400;28;20155;-64
2022/08/17 02:55:18;;;;;;;7.55;5.68;;;17.40;99.90;;;16.42;100.00;97157.22;4950181;28;20563;-64
2022/08/17 02:57:45;;;;;;;9.43;6.25;;;17.40;99.90;;;16.14;100.00;97193.25;4937375;28;20051;-64
2022/08/17 03:00:24;;;;;;;7.22;6.00;;;17.30;99.90;;;16.40;100.00;97220.22;4956422;28;20126;-63
2022/08/17 03:02:51;;;;;;;10.57;4.90;;;17.20;99.90;;;17.00;100.00;97226.34;4942071;28;20071;-63
2022/08/17 03:05:22;;;;;;;8.32;4.47;;;17.40;99.90;;;17.82;100.00;97196.59;4938699;28;20094;-64
2022/08/17 03:07:50;;;;;;;7.18;4.03;;;17.80;99.90;;;18.19;100.00;97179.59;4957127;28;20051;-63
2022/08/17 03:10:20;;;;;;;6.63;4.07;;;18.30;99.90;;;18.34;100.00;97156.50;4951494;28;20055;-63
2022/08/17 03:12:47;;;;;;;6.03;3.88;;;18.60;99.90;;;18.57;100.00;97123.09;4939970;28;20113;-64
2022/08/17 03:15:22;;;;;;;6.43;4.05;;;18.90;99.90;;;18.67;100.00;97110.03;4956818;28;20048;-63
2022/08/17 03:17:51;;;;;;;5.57;3.45;;;;;;;18.72;100.00;97105.22;4940782;28;20039;-63
2022/08/17 03:20:19;;;;;;;7.85;3.85;;;19.20;99.90;;;18.72;100.00;97102.59;4941768;29;20145;-64
2022/08/17 03:22:51;;;;;;;8.30;3.95;;;19.30;99.90;;;18.77;100.00;97104.84;4958488;28;20059;-63
2022/08/17 03:25:42;;;;;;;7.03;4.07;;;19.30;99.90;;;18.71;100.00;97106.19;4955645;28;20229;-63
2022/08/17 03:28:11;;;;;;;6.10;3.58;;;19.40;99.90;;;18.77;100.00;97108.34;4942620;28;20051;-63
2022/08/17 03:30:39;;;;;;;5.93;3.78;;;19.40;99.90;;;18.84;100.00;97110.44;4940071;28;20134;-63
2022/08/17 03:33:11;;;;;;;5.57;3.88;;;19.40;99.90;;;18.96;100.00;97106.81;4949852;28;20061;-63
2022/08/17 03:35:39;;;;;;;4.80;3.90;;;19.40;99.90;;;18.98;100.00;97103.06;4941562;28;20460;-63
2022/08/17 03:38:09;;;;;;;7.85;3.85;;;19.50;99.90;;;19.14;100.00;97092.09;4938698;28;20134;-63
2022/08/17 03:40:37;;;;;;;5.05;3.60;;;19.50;99.90;;;19.20;100.00;97090.72;4940211;28;20583;-63
2022/08/17 03:43:31;;;;;;;7.78;3.92;;;19.50;99.90;;;19.22;100.00;97088.78;4940923;28;20520;-63
2022/08/17 03:57:29;;;;;;;4.35;3.13;;;19.80;99.90;;;19.38;100.00;97081.25;4951701;28;20078;-63
2022/08/17 03:59:56;;;;;;;4.25;3.83;;;19.90;99.90;;;19.50;100.00;97073.25;4941656;28;20477;-63
2022/08/17 04:02:29;;;;;;;4.95;4.43;;;19.90;99.90;;;19.43;100.00;97071.19;4939619;28;20540;-63
2022/08/17 04:04:57;;;;;;;5.32;3.88;;;19.90;99.90;;;19.44;100.00;97064.09;4954101;28;20173;-64
2022/08/17 04:07:28;;;;;;;5.35;4.40;;;19.90;99.90;;;19.29;100.00;97065.41;4952281;28;20065;-64
2022/08/17 04:09:56;;;;;;;6.57;3.28;;;19.90;99.90;;;19.19;100.00;97065.38;4945963;28;20190;-64
2022/08/17 04:12:30;;;;;;;8.95;4.13;;;19.80;99.90;;;19.07;100.00;97083.06;4956738;28;20232;-63
2022/08/17 04:14:58;;;;;;;5.38;3.38;;;19.70;99.90;;;18.98;100.00;97081.22;4958280;28;20388;-63
2022/08/17 04:17:28;;;;;;;4.95;3.83;;;19.70;99.90;;;18.92;100.00;97084.34;4942257;28;20047;-63
2022/08/17 04:19:56;;;;;;;4.15;3.25;;;19.60;99.90;;;18.93;100.00;97080.75;4940741;28;20434;-64
2022/08/17 04:22:24;;;;;;;4.20;3.33;;;19.60;99.90;;;18.86;100.00;97079.59;4942179;28;20155;-63
2022/08/17 04:25:14;;;;;;;6.47;3.53;;;19.50;99.90;;;18.74;100.00;97079.63;4941595;28;20069;-64
2022/08/17 04:27:41;;;;;;;;;;;19.50;99.90;;;18.81;100.00;97077.34;4941966;28;20078;-64
2022/08/17 04:30:09;;;;;;;5.70;3.25;;;19.40;99.90;;;18.79;100.00;97076.66;4939848;28;20179;-63
2022/08/17 04:32:50;;;;;;;7.85;3.78;;;19.50;99.90;;;18.63;100.00;97090.19;4957826;28;20075;-63
2022/08/17 04:35:53;;;;;;;12.05;4.38;;;19.40;99.90;;;18.42;100.00;97110.38;4939997;28;20044;-62
2022/08/17 04:38:24;;;;;;;7.38;4.32;;;19.30;99.90;;;18.45;100.00;97110.97;4940141;28;20067;-63
2022/08/17 04:43:40;;;;;;;7.60;4.22;;;19.30;99.90;;;18.55;100.00;97109.25;4951665;28;20047;-63
2022/08/17 04:46:16;;;;;;;4.85;4.20;;;19.20;99.90;;;18.50;100.00;97107.97;4940607;28;20051;-64
2022/08/17 04:48:52;;;;;;;6.10;4.68;;;19.30;99.90;;;18.31;100.00;97111.25;4954425;28;20051;-64
2022/08/17 04:51:27;;;;;;;5.40;4.90;;;19.20;99.90;;;18.15;100.00;97125.66;4943392;28;20055;-63
2022/08/17 04:54:17;;;;;;;7.63;4.88;;;19.20;99.90;;;18.15;100.00;97132.69;4944094;28;20067;-64
2022/08/17 04:56:44;;;;;;;6.25;4.57;;;19.10;99.90;;;18.10;100.00;97130.41;4961269;28;20671;-64
2022/08/17 04:59:19;;;;;;;8.25;5.25;;;19.10;99.90;;;18.04;100.00;97141.44;4940264;28;20137;-63
2022/08/17 05:01:51;;;;;;;5.97;4.82;;;19.10;99.90;;;18.32;100.00;97134.78;4942946;28;20133;-64
2022/08/17 05:04:23;;;;;;;7.07;4.38;;;19.10;99.90;;;18.62;100.00;97127.97;4940409;28;20428;-64
2022/08/17 05:07:00;;;;;;;5.85;4.90;;;19.10;99.90;;;18.58;100.00;97116.88;4944072;28;20051;-64
2022/08/17 05:09:27;;;;;;;8.82;4.80;;;19.30;99.90;;;18.60;100.00;97120.22;4938037;28;20168;-64
2022/08/17 05:11:54;;;;;;;7.32;4.85;;;19.40;99.90;;;18.55;100.00;97118.94;4945165;28;20185;-63
2022/08/17 05:14:28;;;;;;;7.65;4.30;;;19.50;99.90;;;18.69;100.00;97118.63;4943654;28;20062;-64
2022/08/17 05:17:00;;;;;;;11.20;4.43;;;19.40;99.90;;;18.72;100.00;97120.16;4941171;28;20662;-64
2022/08/17 05:19:33;;;;;;;7.38;4.25;;;19.40;99.90;;;18.83;100.00;97114.03;4941980;28;20776;-64
2022/08/17 05:22:04;;;;;;;8.43;4.40;;;19.30;99.90;;;18.95;100.00;97110.38;4941166;28;20047;-63
2022/08/17 05:24:32;;;;;;;5.65;4.32;;;19.40;99.90;;;18.90;100.00;97097.63;4939602;28;20109;-63
2022/08/17 05:27:16;;;;;;;8.23;5.43;;;19.40;99.90;;;18.79;100.00;97089.78;4945289;28;20055;-63
2022/08/17 05:29:45;;;;;;;5.60;4.32;;;19.50;99.90;;;18.79;100.00;97087.16;4940565;28;20674;-64
2022/08/17 05:32:12;;;;;;;6.70;4.72;;;19.50;99.90;;;18.64;100.00;97091.06;4938705;28;20554;-63
2022/08/17 05:34:59;;;;;;;7.38;5.35;;;19.60;99.90;;;18.38;100.00;97118.53;4939807;28;20044;-64
2022/08/17 05:37:27;;;;;;;8.57;5.43;;;19.50;99.90;;;18.29;100.00;97116.66;4937706;28;20043;-63
2022/08/17 05:39:54;;;;;;;7.40;4.53;;;19.50;99.90;;;18.49;100.00;97116.81;4940133;28;20061;-63
2022/08/17 05:42:21;;;;;;;6.45;4.72;;;19.50;99.90;;;18.58;100.00;97122.13;4939655;28;20047;-63
2022/08/17 05:44:48;;;;;;;7.75;5.03;;;19.50;99.90;;;18.45;100.00;97136.41;4938881;28;20051;-63
2022/08/17 05:47:17;;;;;;;9.98;5.38;;;19.50;99.90;;;18.29;100.00;97158.69;4952478;28;20691;-63
2022/08/17 05:49:44;;;;;;;9.15;6.28;;;19.50;99.90;;;18.04;100.00;97180.81;4940768;28;20417;-64
2022/08/17 05:52:55;;;;;;;8.30;6.15;;;19.30;99.90;;;18.09;100.00;97193.59;4939884;28;20092;-62
2022/08/17 05:55:54;;;;;;;7.13;5.90;;;19.20;99.90;;;18.05;100.00;97219.25;4955728;28;20064;-63
2022/08/17 05:58:57;;;;;;;12.55;6.30;;;19.10;99.90;;;18.08;100.00;97223.44;4936483;28;20063;-62
2022/08/17 06:02:15;;;;;;;6.43;5.70;;;19.10;99.90;;;18.02;100.00;97224.75;4941035;28;20134;-63
2022/08/17 06:05:38;;;;;;;7.63;5.65;;;19.10;99.90;;;18.12;100.00;97220.44;4958491;28;20055;-64
2022/08/17 06:08:25;;;;;;;9.02;5.38;;;19.00;99.90;;;18.34;100.00;97210.88;4942832;28;20051;-64
2022/08/17 06:11:18;;;;;;;7.45;5.53;;;19.00;99.90;;;18.26;100.00;97215.88;4957793;28;20050;-63
2022/08/17 06:13:55;;;;;;;7.90;6.18;;;19.00;99.90;;;18.33;100.00;97215.25;4937259;29;20126;-64
2022/08/17 06:16:30;;;;;;;8.60;5.93;;;19.10;99.90;;;18.32;100.00;97218.03;4940677;28;20051;-63
2022/08/17 06:19:18;;;;;;;6.57;5.80;;;19.10;99.90;;;18.39;100.00;97216.59;4937338;28;20469;-62
2022/08/17 06:21:50;;;;;;;8.65;5.75;;;19.10;99.90;;;18.51;100.00;97212.97;4954348;28;20055;-64
2022/08/17 06:24:19;;;;;;;9.93;5.78;;;19.10;99.90;;;18.51;100.00;97218.22;4952551;28;20048;-63
2022/08/17 06:26:47;;;;;;;7.22;5.63;;;19.20;99.90;;;18.50;100.00;97220.97;4938565;28;20134;-63
2022/08/17 06:29:44;;;;;;;9.55;7.18;;;19.30;99.90;;;18.59;100.00;97214.97;4941083;28;20059;-63
2022/08/17 06:32:13;;;;;;;8.48;7.20;;;19.40;99.90;;;19.06;100.00;97207.63;4939618;28;20131;-63
2022/08/17 06:34:42;;;;;;;8.65;6.85;;;19.50;99.90;;;19.21;100.00;97192.38;4954110;28;20166;-63
2022/08/17 06:37:24;;;;;;;6.22;5.63;;;19.70;99.90;;;19.52;100.00;97182.72;4953444;28;20091;-62
2022/08/17 06:39:51;;;;;;;12.50;6.10;;;19.90;99.90;;;19.54;100.00;97177.31;4939877;28;20117;-63
2022/08/17 06:43:31;;;;;;;10.00;4.78;;;20.00;99.90;;;19.76;100.00;97163.19;4939778;28;20061;-63
2022/08/17 06:46:17;;;;;;;9.30;5.80;;;20.10;99.90;;;19.36;100.00;97175.31;4929885;28;20122;-63
2022/08/17 06:49:11;;;;;;;7.53;5.45;;;20.20;99.90;;;19.21;100.00;97195.00;4938587;28;20158;-63
2022/08/17 06:51:45;;;;;;;6.65;5.35;;;20.20;99.90;;;19.30;100.00;97196.88;4940101;29;20150;-63
2022/08/17 06:54:21;;;;;;;6.40;5.15;;;20.10;99.90;;;19.56;100.00;97183.28;4949399;28;20087;-63
2022/08/17 06:57:16;;;;;;;8.32;5.55;;;20.10;99.90;;;19.41;100.00;97186.28;4938378;28;20416;-63
2022/08/17 07:00:24;;;;;;;8.68;5.10;;;20.20;99.90;;;19.41;100.00;97191.53;4955154;28;20134;-62
2022/08/17 07:03:00;;;;;;;6.50;4.97;;;20.20;99.90;;;19.78;100.00;97183.16;4933029;28;20584;-64
2022/08/17 07:06:10;;;;;;;6.50;4.25;;;20.20;99.90;;;19.83;100.00;97159.88;4936524;28;20067;-64
2022/08/17 07:08:43;;;;;;;6.28;4.20;;;20.40;99.90;;;20.23;100.00;97153.75;4950792;28;20133;-64
2022/08/17 07:11:18;;;;;;;6.05;4.80;;;20.60;99.90;;;20.42;100.00;97137.13;4941993;28;20661;-64
2022/08/17 07:14:10;;;;;;;5.68;4.22;;;20.80;99.90;;;20.59;100.00;97135.63;4952100;28;20048;-64
2022/08/17 07:16:53;;;;;;;6.38;5.22;;;21.00;99.90;;;20.30;100.00;97138.25;4938749;28;20473;-64
2022/08/17 07:19:24;;;;;;;7.50;5.30;;;21.10;99.90;;;19.94;100.00;97164.22;4937975;28;20051;-64
2022/08/17 07:22:29;;;;;;;8.17;5.00;;;21.00;99.90;;;20.32;100.00;97181.09;4932455;28;20517;-63
2022/08/17 07:25:17;;;;;;;8.93;4.47;;;21.00;99.90;;;20.57;100.00;97163.09;4939165;28;20050;-64
2022/08/17 07:27:52;;;;;;;7.55;4.88;;;21.10;99.90;;;20.52;100.00;97152.94;4934583;28;20051;-63
2022/08/17 07:30:27;;;;;;;6.38;5.18;;;21.10;99.90;;;20.36;100.00;97147.38;4938500;29;20044;-64
2022/08/17 07:33:00;;;;;;;6.85;5.10;;;21.20;99.90;;;20.23;100.00;97143.22;4933784;28;20488;-64
2022/08/17 07:35:43;;;;;;;6.57;4.90;;;21.20;99.90;;;20.19;100.00;97139.19;4953159;28;20056;-63
2022/08/17 07:38:33;;;;;;;6.25;4.63;;;21.20;99.90;;;20.14;100.00;97149.31;4951019;28;20154;-64
2022/08/17 07:41:05;;;;;;;7.00;4.57;;;21.20;99.90;;;20.34;100.00;97149.31;4935946;28;20139;-64
2022/08/17 07:43:37;;;;;;;;;;;21.20;99.90;;;20.63;100.00;97144.09;4954489;28;20086;-64
2022/08/17 07:49:13;;;;;;;7.70;3.80;;;21.30;99.90;;;21.11;100.00;97122.13;4936496;28;19926;-64
2022/08/17 07:51:44;;;;;;;4.78;3.67;;;21.60;99.90;;;21.22;100.00;97105.28;4939607;28;20078;-62
2022/08/17 07:54:14;;;;;;;5.30;3.10;;;21.80;99.90;;;21.41;100.00;97085.94;4943630;28;20147;-63
2022/08/17 07:56:54;;;;;;;5.25;3.38;;;21.90;99.90;;;21.40;100.00;97084.25;4939100;28;20078;-63
2022/08/17 07:59:37;;;;;;;8.93;3.20;;;22.00;99.90;;;21.47;100.00;97072.97;4938291;29;20461;-64
2022/08/17 08:02:25;;;;;;;5.55;3.05;;;22.20;99.90;;;21.44;100.00;97089.13;4956527;28;20051;-64
2022/08/17 08:05:20;;;;;;;6.30;3.05;;;22.30;99.90;;;21.54;100.00;97104.09;4957646;28;20055;-64
2022/08/17 08:08:25;;;;;;;5.57;3.67;;;22.40;99.90;;;21.74;100.00;97116.25;4939424;28;20099;-64
2022/08/17 08:11:06;;;;;;;4.22;3.47;;;22.30;99.90;;;21.61;100.00;97119.19;4944671;28;20046;-64
2022/08/17 08:13:41;;;;;;;6.97;4.47;;;22.30;99.90;;;21.78;100.00;97120.25;4940788;29;20083;-63
2022/08/17 08:16:23;;;;;;;6.82;3.75;;;22.30;99.90;;;21.22;100.00;97127.22;4942271;28;20139;-64
2022/08/17 08:18:58;;;;;;;;;;;22.30;99.90;;;21.59;100.00;97129.06;4939985;28;20075;-63
2022/08/17 08:21:48;;;;;;;3.85;3.00;;;22.30;99.90;;;21.86;100.00;97117.69;4954267;28;19926;-63
2022/08/17 08:24:38;;;;;;;6.07;3.70;;;22.40;99.90;;;21.83;100.00;97123.28;4955800;28;20134;-64
2022/08/17 08:27:27;;;;;;;4.80;3.38;;;22.50;99.90;;;21.59;100.00;97122.97;4951162;28;20079;-63
2022/08/17 08:29:56;;;;;;;6.68;3.65;;;22.40;99.90;;;21.20;100.00;97147.66;4939866;29;20051;-64
2022/08/17 08:33:18;;;;;;;6.90;4.03;;;22.30;99.90;;;21.59;100.00;97149.38;4957096;28;20062;-63
2022/08/17 08:35:53;;;;;;;4.32;3.33;;;22.20;99.90;;;21.12;100.00;97149.31;4955932;28;20083;-64
2022/08/17 08:38:41;;;;;;;6.03;3.78;;;22.10;99.90;;;21.39;100.00;97152.03;4939752;28;20112;-63
2022/08/17 08:41:18;;;;;;;8.40;3.45;;;22.10;99.90;;;21.63;100.00;97146.31;4941234;28;20050;-64
2022/08/17 08:44:15;;;;;;;5.45;3.30;;;22.20;99.90;;;21.20;100.00;97167.94;4942538;29;20054;-63
2022/08/17 08:47:17;;;;;;;4.78;3.47;;;22.30;99.90;;;21.35;100.00;97170.94;4956004;28;20051;-63
2022/08/17 08:50:28;;;;;;;5.22;3.80;;;22.30;99.90;;;21.50;100.00;97182.75;4953002;28;20158;-63
2022/08/17 08:53:23;;;;;;;3.80;3.13;;;22.30;99.90;;;21.82;100.00;97177.09;4957677;28;20052;-63
2022/08/17 08:56:02;;;;;;;4.82;3.20;;;22.40;99.90;;;22.56;100.00;97159.47;4945270;28;20146;-64
2022/08/17 08:58:54;;;;;;;5.35;2.90;;;22.80;99.90;;;22.59;100.00;97164.44;4957115;28;20053;-64
2022/08/17 09:01:41;;;;;;;6.90;3.20;;;23.00;99.90;;;22.44;100.00;97150.91;4941560;28;20135;-65
2022/08/17 09:04:17;;;;;;;4.63;2.80;;;23.10;99.90;;;22.68;100.00;97145.00;4954378;28;20639;-64
2022/08/17 09:07:38;;;;;;;11.45;3.58;;;23.20;99.90;;;22.26;100.00;97148.25;4957573;28;20059;-64
2022/08/17 09:10:20;;;;;;;5.72;3.30;;;23.30;99.90;;;22.35;100.00;97157.06;4938669;28;20069;-62
2022/08/17 09:13:21;;;;;;;5.18;3.10;;;23.20;99.90;;;21.66;100.00;97159.22;4958733;28;20051;-63
2022/08/17 09:16:06;;;;;;;4.65;2.78;;;23.00;99.90;;;21.77;100.00;97171.41;4941238;28;20555;-64
2022/08/17 09:18:40;;;;;;;4.18;3.25;;;22.90;99.90;;;22.04;100.00;97165.31;4956567;28;20463;-63
2022/08/17 09:21:56;;;;;;;5.30;3.85;;;23.00;99.90;;;22.13;100.00;97168.88;4951372;28;20497;-64
2022/08/17 09:24:43;;;;;;;4.20;3.10;;;23.30;99.90;;;22.54;100.00;97164.88;4934542;28;20173;-63
2022/08/17 09:27:18;;;;;;;7.07;3.33;;;23.30;99.90;;;22.72;100.00;97156.13;4953789;28;20097;-63
2022/08/17 09:29:56;;;;;;;5.07;3.10;;;23.60;99.90;;;22.67;100.00;97156.59;4952640;28;20085;-63
2022/08/17 09:32:30;;;;;;;6.25;3.30;;;23.70;99.90;;;22.56;100.00;97151.53;4955110;28;20062;-64
2022/08/17 09:35:14;;;;;;;4.93;3.20;;;23.80;99.90;;;23.09;100.00;97148.03;4940741;28;20051;-63
2022/08/17 09:37:52;;;;;;;4.68;2.97;;;23.80;99.90;;;23.14;100.00;97142.25;4937827;28;20130;-64
2022/08/17 09:40:33;;;;;;;4.78;2.70;;;23.80;99.90;;;22.66;100.00;97146.97;4937220;28;20070;-64
2022/08/17 09:43:09;;;;;;;7.43;3.38;;;23.90;99.90;;;23.02;100.00;97154.91;4954151;28;20059;-64
2022/08/17 09:46:12;;;;;;;7.03;3.72;;;23.70;99.90;;;22.92;100.00;97144.41;4955079;28;20134;-64
2022/08/17 09:49:36;;;;;;;5.25;3.13;;;23.80;99.90;;;23.60;100.00;97124.31;4938885;28;20066;-64
2022/08/17 09:52:22;;;;;;;4.65;2.83;;;24.00;99.90;;;23.57;100.00;97114.03;4937187;29;20481;-65
2022/08/17 09:54:52;;;;;;;4.78;2.50;;;24.20;99.90;;;24.83;100.00;97111.41;4935822;28;20139;-63
2022/08/17 09:57:23;;;;;;;4.95;2.80;;;24.70;99.90;;;25.46;100.00;97094.75;4935623;28;20051;-63
2022/08/17 10:00:10;;;;;;;8.75;2.63;;;25.20;99.90;;;26.00;100.00;97082.56;4936947;28;20060;-64
2022/08/17 10:03:15;;;;;;;5.65;2.30;;;25.60;99.90;;;27.03;100.00;97082.19;4940132;28;20143;-63
2022/08/17 10:06:05;;;;;;;3.67;2.42;;;26.00;99.90;;;26.93;100.00;97078.94;4951897;28;20580;-64
2022/08/17 10:08:51;;;;;;;4.63;2.30;;;26.70;99.90;;;26.23;100.00;97086.09;4953824;28;20055;-63
2022/08/17 10:14:41;;;;;;;4.32;2.05;;;27.30;99.90;;;28.36;100.00;97080.44;4953301;28;20166;-64
2022/08/17 10:17:32;;;;;;;5.65;2.03;;;27.80;99.90;;;27.25;100.00;97080.47;4943442;28;20523;-64
2022/08/17 10:20:29;;;;;;;5.32;2.30;;;28.10;99.90;;;27.36;100.00;97070.38;4935140;28;20170;-63
2022/08/17 10:26:13;;;;;;;4.80;1.95;;;28.10;99.90;;;28.41;100.00;97075.34;4950705;28;20150;-63
2022/08/17 10:29:16;;;;;;;3.63;1.77;;;28.20;99.90;;;26.78;100.00;97086.91;4951185;28;20144;-64
2022/08/17 10:31:49;;;;;;;4.30;1.92;;;28.20;99.90;;;27.11;100.00;97095.41;4934250;28;20512;-64
2022/08/17 10:34:52;;;;;;;3.65;1.83;;;28.00;99.90;;;27.67;100.00;97081.69;4936655;28;20086;-64
2022/08/17 10:37:58;;;;;;;3.63;2.03;;;28.10;99.90;;;28.34;100.00;97079.81;4936647;28;20122;-64
2022/08/17 10:40:33;;;;;;;3.95;1.95;;;28.10;99.90;;;28.47;100.00;97074.63;4940754;28;20139;-63
2022/08/17 10:43:10;;;;;;;4.53;2.08;;;28.30;99.90;;;28.04;100.00;97076.41;4941423;28;20047;-64
2022/08/17 10:46:05;;;;;;;6.50;2.08;;;28.60;99.90;;;28.86;100.00;97081.34;4937069;28;20102;-63
2022/08/17 10:49:16;;;;;;;3.47;1.80;;;28.50;99.90;;;27.05;100.00;97095.28;4938048;28;20042;-64
2022/08/17 10:51:46;;;;;;;5.05;2.13;;;28.50;99.90;;;26.55;100.00;97092.25;4938701;28;20142;-64
2022/08/17 10:54:33;;;;;;;7.93;2.10;;;28.30;99.90;;;26.68;100.00;97079.13;4934403;28;20588;-64
2022/08/17 10:57:01;;;;;;;4.75;2.15;;;28.10;99.90;;;26.16;100.00;97087.81;4938702;28;20321;-63
2022/08/17 10:59:34;;;;;;;3.55;1.83;;;28.00;99.90;;;25.99;100.00;97095.03;4958539;28;20086;-64
2022/08/17 11:02:03;;;;;;;4.78;2.10;;;27.90;99.90;;;25.81;100.00;97105.06;4939187;28;20118;-64
2022/08/17 11:04:57;;;;;;;2.90;1.60;;;27.60;99.90;;;25.83;100.00;97095.09;4939844;28;20055;-64
2022/08/17 11:07:48;;;;;;;3.17;2.05;;;27.40;99.90;;;26.56;100.00;97093.06;4955540;28;20138;-64
2022/08/17 11:10:51;;;;;;;4.82;2.08;;;27.40;99.90;;;25.97;100.00;97114.84;4943586;28;20078;-65
2022/08/17 11:14:07;;;;;;;3.65;2.13;;;27.40;99.90;;;26.06;100.00;97105.81;4941159;28;20091;-64
2022/08/17 11:16:49;;;;;;;5.00;2.15;;;27.30;99.90;;;26.10;100.00;97090.34;4938474;28;20631;-64
2022/08/17 11:19:25;;;;;;;;;;;27.50;99.90;;;26.25;100.00;97096.56;4940436;28;20058;-63
2022/08/17 11:22:48;;;;;;;3.20;2.15;;;27.50;99.90;;;26.64;100.00;97096.50;4944105;28;19927;-64
2022/08/17 11:25:40;;;;;;;3.35;1.77;;;27.60;99.90;;;27.44;100.00;97089.78;4936887;28;20149;-64
2022/08/17 11:28:22;;;;;;;6.13;2.03;;;28.10;99.90;;;27.03;100.00;97094.69;4956747;28;20503;-63